Thursday, April 17, 2014, 2:42 AM EDT

KPHF, Williamsburg International Airport

Location: Newport News, VA, United States Lat: 37.133
Local Time: 2:42 AM EDT ( 6:42 GMT) Lon: -76.5
Time Zone: US/Eastern Elev: 42 ft

Show me the last for .
Show Decoded

2014-04-17 01:54 METAR KPHF 170554Z 36003KT 10SM CLR 04/01 A3051 RMK AO2 SLP331 T00390006 10078
                 20033 50000 =
2014-04-17 00:54 METAR KPHF 170454Z 00000KT 10SM CLR 04/01 A3051 RMK AO2 SLP333 T00440011
                 401220022 =
2014-04-16 23:54 METAR KPHF 170354Z 00000KT 10SM CLR 04/01 A3051 RMK AO2 SLP333 T00440011 =
2014-04-16 22:54 METAR KPHF 170254Z 00000KT 10SM CLR 05/01 A3051 RMK AO2 SLP330 T00500006 51018 =
2014-04-16 21:54 METAR KPHF 170154Z 00000KT 10SM CLR 06/01 A3050 RMK AO2 SLP329 T00610006 =
2014-04-16 20:54 METAR KPHF 170054Z 05004KT 10SM CLR 07/M02 A3048 RMK AO2 SLP322 T00721022 =
2014-04-16 19:54 METAR KPHF 162354Z 04004KT 10SM CLR 08/M03 A3045 RMK AO2 SLP312 T00781028 10122
                 20078 51017 =
2014-04-16 18:54 METAR KPHF 162254Z 03008KT 10SM CLR 09/M03 A3044 RMK AO2 SLP309 T00941033 =
2014-04-16 17:54 METAR KPHF 162154Z 05013G18KT 10SM CLR 10/M05 A3042 RMK AO2 SLP300 T01001050 =
2014-04-16 16:54 METAR KPHF 162054Z 06015G20KT 10SM CLR 11/M03 A3040 RMK AO2 SLP295 T01061033
                 55001 =
2014-04-16 15:54 METAR KPHF 161954Z 04011G17KT 10SM CLR 11/M02 A3040 RMK AO2 SLP294 T01111017 =
2014-04-16 14:54 METAR KPHF 161854Z 04007KT 360V070 10SM CLR 12/M04 A3040 RMK AO2 SLP294
                 T01171044 =
2014-04-16 13:54 METAR KPHF 161754Z 03010G16KT 360V060 10SM CLR 11/M04 A3041 RMK AO2 SLP297
                 T01061044 10111 20039 53002 =
2014-04-16 12:54 METAR KPHF 161654Z 04010G19KT 10SM CLR 10/M05 A3040 RMK AO2 SLP295 T01001050 =
2014-04-16 11:54 METAR KPHF 161554Z 35013G19KT 10SM CLR 09/M04 A3041 RMK AO2 SLP296 T00891044 =
2014-04-16 10:54 METAR KPHF 161454Z 35010G18KT 10SM CLR 08/M06 A3040 RMK AO2 SLP295 T00781056
                 51033 =
2014-04-16 09:54 METAR KPHF 161354Z 36010KT 320V020 10SM CLR 06/M06 A3038 RMK AO2 SLP288
                 T00611061 =
2014-04-16 08:54 METAR KPHF 161254Z 34016G22KT 10SM CLR 05/M07 A3034 RMK AO2 SLP273 T00501067 =
2014-04-16 07:54 METAR KPHF 161154Z 01010KT 10SM CLR 04/M07 A3030 RMK AO2 SLP262 70224 T00391067
                 10050 20022 51046 =
2014-04-16 06:54 METAR KPHF 161054Z 35012KT 10SM CLR 03/M06 A3026 =
2014-04-16 05:54 METAR KPHF 160954Z 35010KT 10SM CLR 03/M05 A3022 RMK AO2 SLP231 T00281050 =
2014-04-16 04:54 METAR KPHF 160854Z 35011G20KT 10SM CLR 03/M06 A3017 RMK AO2 PK WND 32029/0757
                 SLP214 T00331056 51045 =
2014-04-16 03:54 METAR KPHF 160754Z 34014G29KT 10SM CLR 04/M04 A3013 RMK AO2 PK WND 33029/0750
                 SLP202 T00391044 =
2014-04-16 02:54 METAR KPHF 160654Z 34014G22KT 10SM CLR 04/M03 A3010 RMK AO2 SLP190 T00441028 =

Support USWX by starting your Amazon purchase here.